Time;durP1;ratioP1;P1;durP2;ratioP2;P2;SDS_P1;SDS_P2;PMS_P1;PMS_P2;Temp;Humidity;BMP_temperature;BMP_pressure;BME280_temperature;BME280_humidity;BME280_pressure;Samples;Min_cycle;Max_cycle;Signal;HPM_P1;HPM_P2
2023/07/08 00:00:21;;;;;;;8.43;3.40;;;;;;;22.15;100.00;100008.84;4875816;29;20028;-69
2023/07/08 00:02:46;;;;;;;5.88;3.30;;;;;;;22.13;100.00;100010.41;4891619;29;20036;-69
2023/07/08 00:05:13;;;;;;;6.38;3.60;;;;;;;22.12;100.00;100017.25;4906973;29;20043;-69
2023/07/08 00:07:39;;;;;;;8.18;3.53;;;;;;;22.10;100.00;100012.00;4891155;29;20038;-69
2023/07/08 00:10:25;;;;;;;5.70;3.40;;;;;;;22.08;100.00;100020.03;4900698;29;20036;-69
2023/07/08 00:12:52;;;;;;;6.07;3.38;;;;;;;22.07;100.00;100018.41;4923324;29;20044;-69
2023/07/08 00:15:17;;;;;;;7.55;3.40;;;;;;;22.00;100.00;100024.78;4906743;29;20063;-69
2023/07/08 00:17:43;;;;;;;6.63;3.50;;;;;;;22.01;100.00;100017.13;4890912;29;20036;-69
2023/07/08 00:20:21;;;;;;;8.05;3.70;;;;;;;22.01;100.00;100015.13;4906854;29;20047;-69
2023/07/08 00:22:52;;;;;;;7.28;3.95;;;;;;;21.98;100.00;100015.06;4906543;29;20445;-69
2023/07/08 00:25:19;;;;;;;6.63;3.20;;;;;;;21.95;100.00;100013.00;4877052;29;20024;-69
2023/07/08 00:27:46;;;;;;;5.63;3.00;;;;;;;21.94;100.00;100014.19;4906606;29;20036;-69
2023/07/08 00:30:22;;;;;;;7.20;3.35;;;;;;;21.91;100.00;100009.31;4906663;29;20060;-69
2023/07/08 00:32:53;;;;;;;5.45;3.25;;;;;;;21.88;100.00;100013.72;4891980;29;20084;-69
2023/07/08 00:35:22;;;;;;;6.20;3.58;;;;;;;21.86;100.00;100016.09;4888701;29;20470;-69
2023/07/08 00:37:52;;;;;;;6.13;3.47;;;;;;;21.82;100.00;100018.09;4887440;29;20547;-69
2023/07/08 00:40:19;;;;;;;7.32;3.33;;;;;;;21.79;100.00;100013.19;4875866;29;20176;-69
2023/07/08 00:42:45;;;;;;;9.40;3.13;;;;;;;21.75;100.00;100007.47;4900798;29;20449;-69
2023/07/08 00:45:20;;;;;;;8.23;3.20;;;;;;;21.72;100.00;100015.91;4872078;29;20051;-69
2023/07/08 00:47:46;;;;;;;7.13;3.60;;;;;;;21.69;100.00;100020.31;4905641;29;20032;-69
2023/07/08 00:50:11;;;;;;;6.95;3.97;;;;;;;21.71;100.00;100022.78;4887402;29;20036;-69
2023/07/08 00:52:37;;;;;;;8.18;3.40;;;;;;;21.64;100.00;100023.47;4889356;28;20029;-69
2023/07/08 00:55:06;;;;;;;5.55;3.45;;;;;;;21.61;100.00;100022.22;4887370;29;20036;-69
2023/07/08 00:57:33;;;;;;;6.53;3.58;;;;;;;21.59;100.00;100038.75;4886955;29;20028;-69
2023/07/08 01:00:08;;;;;;;6.32;3.67;;;;;;;21.52;100.00;100037.81;4884375;29;20043;-69
2023/07/08 01:02:43;;;;;;;6.53;3.35;;;;;;;21.51;100.00;100042.66;4890203;29;20122;-69
2023/07/08 01:05:15;;;;;;;8.02;3.80;;;;;;;21.45;100.00;100044.16;4889846;29;20141;-69
2023/07/08 01:07:42;;;;;;;8.10;3.47;;;;;;;21.43;100.00;100049.38;4889792;29;20024;-70
2023/07/08 01:10:12;;;;;;;6.30;3.90;;;;;;;21.38;100.00;100061.00;4888182;29;20040;-69
2023/07/08 01:12:40;;;;;;;7.90;4.50;;;;;;;21.35;100.00;100053.25;4875434;29;20055;-69
2023/07/08 01:15:06;;;;;;;7.05;3.83;;;;;;;21.35;100.00;100064.56;4888972;29;20036;-69
2023/07/08 01:17:32;;;;;;;8.23;3.83;;;;;;;21.27;100.00;100065.63;4880982;29;20039;-69
2023/07/08 01:19:57;;;;;;;7.18;3.78;;;;;;;21.27;100.00;100068.44;4905577;29;20036;-69
2023/07/08 01:22:23;;;;;;;6.65;3.83;;;;;;;21.24;100.00;100060.72;4874311;29;20047;-69
2023/07/08 01:24:48;;;;;;;6.88;3.80;;;;;;;21.18;100.00;100061.03;4905486;29;20036;-69
2023/07/08 01:27:16;;;;;;;6.70;3.83;;;;;;;21.19;100.00;100067.50;4889899;29;20031;-69
2023/07/08 01:29:41;;;;;;;8.50;3.58;;;;;;;21.15;100.00;100075.91;4905308;29;20051;-69
2023/07/08 01:32:13;;;;;;;7.75;3.92;;;;;;;21.17;100.00;100086.81;4890012;29;20489;-69
2023/07/08 01:34:39;;;;;;;5.35;3.58;;;;;;;21.12;100.00;100079.50;4921105;29;20405;-69
2023/07/08 01:37:05;;;;;;;7.53;3.58;;;;;;;21.11;100.00;100086.31;4889441;29;20036;-69
2023/07/08 01:39:30;;;;;;;8.77;3.17;;;;;;;21.07;100.00;100079.00;4905245;29;20036;-69
2023/07/08 01:41:57;;;;;;;6.32;3.60;;;;;;;21.05;100.00;100076.53;4873946;29;20073;-69
2023/07/08 01:44:35;;;;;;;7.65;3.22;;;;;;;21.04;100.00;100086.22;4889730;29;20035;-69
2023/07/08 01:47:17;;;;;;;9.30;3.45;;;;;;;21.02;100.00;100084.94;4905437;29;20032;-69
2023/07/08 01:49:42;;;;;;;6.28;3.55;;;;;;;21.01;100.00;100091.78;4889516;29;20035;-69
2023/07/08 01:52:08;;;;;;;5.45;3.42;;;;;;;21.00;100.00;100084.50;4904861;29;20028;-69
2023/07/08 01:54:33;;;;;;;5.22;3.28;;;;;;;20.98;100.00;100093.34;4889569;29;20495;-69
2023/07/08 01:57:00;;;;;;;7.20;3.22;;;;;;;20.96;100.00;100098.56;4873733;29;20043;-69
2023/07/08 01:59:26;;;;;;;6.57;3.30;;;;;;;20.94;100.00;100115.84;4858838;29;20063;-69
2023/07/08 02:01:54;;;;;;;7.82;3.28;;;;;;;20.93;100.00;100102.94;4920508;29;20040;-69
2023/07/08 02:04:21;;;;;;;6.75;2.97;;;;;;;20.90;100.00;100100.06;4921951;29;20039;-69
2023/07/08 02:06:57;;;;;;;5.45;3.17;;;;;;;20.88;100.00;100093.97;4904361;29;20064;-69
2023/07/08 02:09:22;;;;;;;4.80;2.75;;;;;;;20.86;100.00;100091.50;4870687;29;20056;-69
2023/07/08 02:11:48;;;;;;;4.93;3.40;;;;;;;20.84;100.00;100088.25;4915978;29;20481;-69
2023/07/08 02:14:14;;;;;;;8.13;3.70;;;;;;;20.82;100.00;100082.16;4873598;29;20131;-69
2023/07/08 02:16:39;;;;;;;5.10;3.20;;;;;;;20.80;100.00;100093.00;4907045;29;20111;-69
2023/07/08 02:19:04;;;;;;;5.20;3.13;;;;;;;20.78;100.00;100098.19;4888955;29;20092;-69
2023/07/08 02:21:30;;;;;;;5.53;3.00;;;;;;;20.72;100.00;100094.06;4904344;29;20042;-69
2023/07/08 02:23:56;;;;;;;5.65;3.30;;;;;;;20.70;100.00;100099.28;4858257;29;20550;-69
2023/07/08 02:26:22;;;;;;;7.78;3.10;;;;;;;20.66;100.00;100104.81;4888669;29;20024;-69
2023/07/08 02:28:47;;;;;;;5.40;2.90;;;;;;;20.63;100.00;100110.41;4858197;29;20024;-69
2023/07/08 02:31:13;;;;;;;5.55;2.95;;;;;;;20.60;100.00;100092.22;4904618;29;20080;-69
2023/07/08 02:33:38;;;;;;;5.53;2.85;;;;;;;20.55;100.00;100086.88;4873560;29;20055;-69
2023/07/08 02:36:04;;;;;;;6.40;2.90;;;;;;;20.55;100.00;100086.88;4920157;29;20032;-69
2023/07/08 02:38:29;;;;;;;6.13;3.13;;;;;;;20.49;100.00;100097.59;4857543;29;20122;-69
2023/07/08 02:40:55;;;;;;;5.38;3.50;;;;;;;20.42;100.00;100096.63;4904317;29;20047;-69
2023/07/08 02:43:21;;;;;;;6.95;3.38;;;;;;;20.43;100.00;100087.81;4888793;29;20115;-69
2023/07/08 02:45:51;;;;;;;6.00;3.33;;;;;;;20.40;100.00;100088.56;4873156;29;20040;-69
2023/07/08 02:48:19;;;;;;;5.82;3.40;;;;;;;20.38;100.00;100092.94;4873525;29;20035;-69
2023/07/08 02:50:45;;;;;;;6.93;2.72;;;;;;;20.34;100.00;100087.22;4888622;29;20042;-69
2023/07/08 02:53:11;;;;;;;8.35;3.47;;;;;;;20.30;100.00;100092.75;4903986;29;20032;-69
2023/07/08 02:55:36;;;;;;;5.07;3.10;;;;;;;20.27;100.00;100087.88;4904171;29;20400;-69
2023/07/08 02:58:02;;;;;;;4.82;3.20;;;;;;;20.25;100.00;100092.25;4904126;29;20036;-69
2023/07/08 03:00:28;;;;;;;5.90;3.25;;;;;;;20.20;100.00;100090.53;4904146;29;20031;-69
2023/07/08 03:02:54;;;;;;;5.07;2.97;;;;;;;20.19;100.00;100094.53;4875376;29;20039;-69
2023/07/08 03:05:19;;;;;;;5.82;3.65;;;;;;;20.17;100.00;100098.91;4923782;29;20040;-69
2023/07/08 03:07:45;;;;;;;7.72;3.15;;;;;;;20.16;100.00;100098.09;4907612;29;20029;-69
2023/07/08 03:10:10;;;;;;;6.53;3.25;;;;;;;20.08;100.00;100101.94;4880652;29;20043;-69
2023/07/08 03:12:36;;;;;;;5.13;3.40;;;;;;;20.06;100.00;100104.34;4889348;29;20040;-69
2023/07/08 03:15:02;;;;;;;6.43;3.30;;;;;;;20.02;100.00;100109.06;4876767;29;20028;-69
2023/07/08 03:17:27;;;;;;;6.43;3.65;;;;;;;19.99;100.00;100104.16;4879967;29;20084;-69
2023/07/08 03:19:53;;;;;;;4.95;2.97;;;;;;;19.98;100.00;100105.34;4891988;29;20032;-69
2023/07/08 03:22:18;;;;;;;7.50;3.67;;;;;;;19.96;100.00;100114.16;4876404;29;20032;-69
2023/07/08 03:24:47;;;;;;;6.28;3.30;;;;;;;19.97;100.00;100117.78;4892003;29;20039;-69
2023/07/08 03:27:15;;;;;;;7.00;3.53;;;;;;;19.95;100.00;100111.72;4861678;29;20032;-69
2023/07/08 03:29:41;;;;;;;7.25;3.25;;;;;;;19.94;100.00;100107.25;4923210;29;20032;-69
2023/07/08 03:32:10;;;;;;;6.57;3.60;;;;;;;19.93;100.00;100120.53;4892032;29;20100;-69
2023/07/08 03:34:36;;;;;;;5.38;3.53;;;;;;;19.92;100.00;100102.00;4907504;29;20040;-69
2023/07/08 03:37:02;;;;;;;5.57;3.38;;;;;;;19.91;100.00;100099.53;4891732;29;20032;-69
2023/07/08 03:39:27;;;;;;;6.63;3.40;;;;;;;19.93;100.00;100095.16;4876149;29;20028;-69
2023/07/08 03:41:53;;;;;;;5.63;3.30;;;;;;;19.93;100.00;100112.09;4891755;29;20028;-69
2023/07/08 03:44:18;;;;;;;7.25;3.47;;;;;;;19.94;100.00;100132.63;4875887;29;20114;-69
2023/07/08 03:46:44;;;;;;;8.18;3.67;;;;;;;19.94;100.00;100141.88;4876124;29;20556;-69
2023/07/08 03:49:10;;;;;;;6.15;3.45;;;;;;;19.95;100.00;100137.09;4891647;29;20036;-69
2023/07/08 03:51:37;;;;;;;7.88;3.60;;;;;;;19.97;100.00;100135.50;4891266;29;20043;-69
2023/07/08 03:54:03;;;;;;;5.82;3.33;;;;;;;19.96;100.00;100138.72;4891603;29;20036;-69
2023/07/08 03:56:29;;;;;;;6.65;3.47;;;;;;;19.95;100.00;100139.91;4906895;29;20127;-69
2023/07/08 03:58:54;;;;;;;7.95;3.33;;;;;;;19.96;100.00;100136.72;4907039;29;20036;-69
2023/07/08 04:01:22;;;;;;;5.82;3.25;;;;;;;19.97;100.00;100141.16;4873002;29;20036;-69
2023/07/08 04:03:48;;;;;;;4.90;3.40;;;;;;;19.99;100.00;100140.78;4904914;29;20032;-69
2023/07/08 04:06:14;;;;;;;8.82;3.70;;;;;;;20.01;100.00;100147.69;4923779;29;20031;-69
2023/07/08 04:08:40;;;;;;;5.88;3.35;;;;;;;20.00;100.00;100162.16;4921852;29;20115;-69
2023/07/08 04:11:05;;;;;;;4.32;2.83;;;;;;;19.99;100.00;100160.53;4896692;29;20035;-69
2023/07/08 04:13:31;;;;;;;9.43;3.65;;;;;;;20.00;100.00;100162.16;4875373;29;20059;-69
2023/07/08 04:15:59;;;;;;;5.57;3.25;;;;;;;20.00;100.00;100163.00;4878726;29;20035;-69
2023/07/08 04:18:24;;;;;;;5.85;3.20;;;;;;;19.98;100.00;100171.00;4893685;29;20060;-69
2023/07/08 04:20:52;;;;;;;5.70;3.15;;;;;;;19.99;100.00;100161.34;4923817;29;20425;-69
2023/07/08 04:23:21;;;;;;;7.28;2.92;;;;;;;19.98;100.00;100159.72;4891042;29;20500;-69
2023/07/08 04:25:47;;;;;;;6.90;3.08;;;;;;;19.98;100.00;100164.53;4906829;29;20043;-69
2023/07/08 04:28:13;;;;;;;5.65;2.92;;;;;;;19.97;100.00;100162.88;4890591;29;20031;-69
2023/07/08 04:30:41;;;;;;;5.35;2.63;;;;;;;19.98;100.00;100181.44;4906569;29;20087;-69
2023/07/08 04:33:16;;;;;;;6.72;3.05;;;;;;;20.00;100.00;100190.34;4875925;29;20028;-69
2023/07/08 04:35:42;;;;;;;6.68;3.28;;;;;;;19.99;100.00;100188.72;4906524;29;20034;-69
2023/07/08 04:38:17;;;;;;;6.55;3.00;;;;;;;19.99;100.00;100171.81;4887268;29;20389;-69
2023/07/08 04:40:43;;;;;;;5.30;2.83;;;;;;;20.00;100.00;100170.59;4867161;29;20052;-69
2023/07/08 04:43:10;;;;;;;3.92;2.95;;;;;;;20.02;100.00;100185.97;4906292;29;20381;-69
2023/07/08 04:45:37;;;;;;;4.60;2.97;;;;;;;20.02;100.00;100196.44;4888681;29;20107;-69
2023/07/08 04:48:08;;;;;;;5.35;3.13;;;;;;;20.03;100.00;100200.88;4890537;29;20031;-69
2023/07/08 04:50:34;;;;;;;7.95;3.22;;;;;;;20.01;100.00;100181.53;4891091;29;20059;-69
2023/07/08 04:53:00;;;;;;;6.40;3.38;;;;;;;19.99;100.00;100191.53;4859570;29;20028;-69
2023/07/08 04:55:25;;;;;;;6.85;3.00;;;;;;;20.01;100.00;100206.09;4890638;29;20484;-69
2023/07/08 04:57:50;;;;;;;5.70;2.78;;;;;;;20.02;100.00;100204.88;4874897;29;20029;-69
2023/07/08 05:00:16;;;;;;;4.65;3.10;;;;;;;20.02;100.00;100208.53;4889542;29;20048;-69
2023/07/08 05:02:42;;;;;;;4.75;2.65;;;;;;;20.03;100.00;100212.16;4890327;29;20122;-69
2023/07/08 05:05:08;;;;;;;5.45;3.03;;;;;;;20.01;100.00;100206.09;4889253;29;20028;-69
2023/07/08 05:07:33;;;;;;;5.65;2.83;;;;;;;20.02;100.00;100216.97;4890016;29;20032;-69
2023/07/08 05:09:59;;;;;;;6.70;2.95;;;;;;;20.01;100.00;100237.91;4910405;29;20049;-69
2023/07/08 05:12:25;;;;;;;4.45;2.70;;;;;;;20.02;100.00;100267.72;4874768;29;20035;-69
2023/07/08 05:14:51;;;;;;;6.20;2.90;;;;;;;20.03;100.00;100268.53;4922491;29;20032;-69
2023/07/08 05:17:16;;;;;;;5.25;2.83;;;;;;;20.04;100.00;100268.19;4929354;29;20047;-69
2023/07/08 05:19:44;;;;;;;4.93;3.08;;;;;;;20.03;100.00;100280.63;4922555;29;20043;-69
2023/07/08 05:22:09;;;;;;;6.72;3.00;;;;;;;20.01;100.00;100280.19;4922390;29;20535;-69
2023/07/08 05:24:35;;;;;;;5.30;3.05;;;;;;;20.02;100.00;100281.81;4904544;29;20032;-69
2023/07/08 05:27:00;;;;;;;5.53;3.13;;;;;;;20.04;100.00;100287.91;4871076;29;20095;-69
2023/07/08 05:29:26;;;;;;;5.47;3.00;;;;;;;20.05;100.00;100281.06;4889985;29;20072;-69
2023/07/08 05:31:51;;;;;;;5.78;3.30;;;;;;;20.04;100.00;100289.91;4886779;29;20039;-69
2023/07/08 05:34:17;;;;;;;5.10;3.30;;;;;;;20.07;100.00;100289.19;4899754;29;20040;-69
2023/07/08 05:36:42;;;;;;;5.28;2.90;;;;;;;20.06;100.00;100294.00;4922198;29;20028;-69
2023/07/08 05:39:08;;;;;;;4.75;3.00;;;;;;;20.06;100.00;100307.28;4871728;29;20036;-69
2023/07/08 05:41:33;;;;;;;6.25;3.25;;;;;;;20.09;100.00;100309.38;4905337;29;20036;-69
2023/07/08 05:43:59;;;;;;;7.05;3.00;;;;;;;20.09;100.00;100295.28;4889391;29;20040;-69
2023/07/08 05:46:24;;;;;;;4.93;2.63;;;;;;;20.09;100.00;100300.91;4889485;29;20095;-69
2023/07/08 05:48:50;;;;;;;7.15;3.38;;;;;;;20.08;100.00;100302.06;4905149;29;20028;-69
2023/07/08 05:51:16;;;;;;;5.13;2.88;;;;;;;20.08;100.00;100299.25;4858553;29;20028;-69
2023/07/08 05:53:42;;;;;;;6.63;3.00;;;;;;;20.09;100.00;100300.91;4874066;29;20043;-69
2023/07/08 05:56:07;;;;;;;5.60;2.80;;;;;;;20.10;100.00;100291.25;4874265;29;20055;-69
2023/07/08 05:58:33;;;;;;;4.13;2.95;;;;;;;20.12;100.00;100294.53;4904738;29;20032;-69
2023/07/08 06:00:58;;;;;;;5.18;3.03;;;;;;;20.14;100.00;100297.81;4870986;29;20032;-69
2023/07/08 06:03:24;;;;;;;6.40;3.00;;;;;;;20.14;100.00;100282.91;4883611;29;20374;-69
2023/07/08 06:05:49;;;;;;;4.15;2.80;;;;;;;20.15;100.00;100288.19;4889301;29;20039;-69
2023/07/08 06:08:15;;;;;;;5.07;3.28;;;;;;;20.20;100.00;100306.84;4905672;29;20060;-69
2023/07/08 06:10:46;;;;;;;5.75;3.03;;;;;;;20.22;100.00;100296.78;4876570;29;20474;-69
2023/07/08 06:13:12;;;;;;;6.47;3.45;;;;;;;20.24;100.00;100274.69;4904530;29;20036;-69
2023/07/08 06:15:38;;;;;;;6.03;3.30;;;;;;;20.25;100.00;100270.72;4886079;29;20038;-69
2023/07/08 06:18:03;;;;;;;5.45;3.60;;;;;;;20.29;100.00;100276.44;4911219;29;20028;-69
2023/07/08 06:20:29;;;;;;;6.65;3.45;;;;;;;20.31;100.00;100271.25;4871603;29;20393;-69
2023/07/08 06:22:55;;;;;;;6.65;3.30;;;;;;;20.29;100.00;100254.69;4888691;29;20059;-69
2023/07/08 06:25:20;;;;;;;5.32;3.13;;;;;;;20.34;100.00;100253.59;4904520;29;20095;-69
2023/07/08 06:27:45;;;;;;;5.03;3.30;;;;;;;20.37;100.00;100250.03;4904493;29;20032;-69
2023/07/08 06:30:11;;;;;;;6.63;3.47;;;;;;;20.40;100.00;100234.41;4889031;29;20028;-69
2023/07/08 06:32:36;;;;;;;5.18;3.33;;;;;;;20.42;100.00;100217.91;4888980;29;20031;-69
2023/07/08 06:35:02;;;;;;;7.25;3.53;;;;;;;20.44;100.00;100188.16;4885800;29;20060;-69
2023/07/08 06:37:28;;;;;;;9.50;5.03;;;;;;;20.40;100.00;100192.09;4897361;29;20063;-69
2023/07/08 06:39:53;;;;;;;6.97;4.25;;;;;;;20.43;100.00;100191.34;4888542;29;20035;-69
2023/07/08 06:42:18;;;;;;;9.55;4.88;;;;;;;20.45;100.00;100177.72;4888654;29;20032;-69
2023/07/08 06:44:50;;;;;;;6.80;4.50;;;;;;;20.45;100.00;100160.78;4888622;29;20032;-69
2023/07/08 06:47:17;;;;;;;7.72;4.55;;;;;;;20.46;100.00;100162.41;4904985;29;20031;-69
2023/07/08 06:49:43;;;;;;;8.65;4.40;;;;;;;20.50;100.00;100191.50;4921213;29;20039;-69
2023/07/08 06:52:08;;;;;;;10.27;3.90;;;;;;;20.57;100.00;100196.53;4888390;29;20028;-69
2023/07/08 06:54:34;;;;;;;7.32;4.32;;;;;;;20.57;100.00;100207.81;4873274;29;20035;-69
2023/07/08 06:57:00;;;;;;;7.32;4.43;;;;;;;20.60;100.00;100201.41;4904148;29;20039;-70
2023/07/08 06:59:25;;;;;;;6.72;4.82;;;;;;;20.63;100.00;100173.28;4904120;29;20039;-69
2023/07/08 07:01:51;;;;;;;6.40;4.40;;;;;;;20.64;100.00;100145.88;4903402;29;20040;-69
2023/07/08 07:04:16;;;;;;;7.95;4.43;;;;;;;20.68;100.00;100146.78;4919983;29;20051;-69
2023/07/08 07:06:42;;;;;;;7.75;4.10;;;;;;;20.69;100.00;100160.50;4903832;29;20032;-69
2023/07/08 07:09:07;;;;;;;6.53;4.88;;;;;;;20.73;100.00;100149.31;4899006;29;20049;-69
2023/07/08 07:11:32;;;;;;;7.60;4.95;;;;;;;20.74;100.00;100154.56;4879272;29;20036;-69
2023/07/08 07:13:58;;;;;;;8.88;4.88;;;;;;;20.73;100.00;100171.88;4882655;29;20084;-69
2023/07/08 07:16:23;;;;;;;6.10;4.32;;;;;;;20.79;100.00;100190.16;4894829;29;20034;-69
2023/07/08 07:18:51;;;;;;;6.35;4.50;;;;;;;20.84;100.00;100200.31;4904092;29;20037;-69
2023/07/08 07:21:17;;;;;;;8.10;4.75;;;;;;;20.92;100.00;100204.91;4903683;29;20397;-69
2023/07/08 07:23:42;;;;;;;6.03;4.50;;;;;;;20.98;100.00;100221.19;4873052;29;20024;-70
2023/07/08 07:26:08;;;;;;;7.63;4.88;;;;;;;21.06;100.00;100233.47;4872725;29;20396;-70
2023/07/08 07:28:33;;;;;;;9.55;5.07;;;;;;;21.12;100.00;100242.44;4872683;29;20020;-69
2023/07/08 07:30:59;;;;;;;7.53;4.53;;;;;;;21.19;100.00;100246.22;4885743;29;20036;-69
2023/07/08 07:33:25;;;;;;;6.05;4.15;;;;;;;21.25;100.00;100254.38;4855477;29;20378;-70
2023/07/08 07:35:50;;;;;;;6.63;4.45;;;;;;;21.31;100.00;100259.38;4885413;29;20025;-70
2023/07/08 07:38:16;;;;;;;8.10;4.60;;;;;;;21.35;100.00;100265.09;4887177;29;20036;-69
2023/07/08 07:40:42;;;;;;;5.88;4.50;;;;;;;21.36;100.00;100264.69;4903598;29;20119;-69
2023/07/08 07:43:07;;;;;;;8.68;4.63;;;;;;;21.39;100.00;100286.59;4893324;29;20366;-70
2023/07/08 07:45:33;;;;;;;4.72;3.55;;;;;;;21.42;100.00;100330.22;4888180;29;20036;-70
2023/07/08 07:47:58;;;;;;;6.03;4.20;;;;;;;21.45;100.00;100365.38;4870366;29;20028;-70
2023/07/08 07:50:24;;;;;;;6.68;4.18;;;;;;;21.42;100.00;100364.97;4891581;29;20087;-69
2023/07/08 07:52:49;;;;;;;5.82;3.72;;;;;;;21.47;100.00;100371.50;4888033;29;20119;-70
2023/07/08 07:55:15;;;;;;;6.10;4.20;;;;;;;21.46;100.00;100372.69;4875935;29;20032;-70
2023/07/08 07:57:41;;;;;;;5.88;4.25;;;;;;;21.43;100.00;100329.06;4875711;29;20028;-70
2023/07/08 08:00:08;;;;;;;5.22;3.80;;;;;;;21.41;100.00;100314.47;4876203;29;20071;-70
2023/07/08 08:02:34;;;;;;;4.90;3.53;;;;;;;21.39;100.00;100305.53;4907147;29;20042;-70
2023/07/08 08:05:00;;;;;;;6.15;3.88;;;;;;;21.35;100.00;100274.38;4876029;29;20102;-70
2023/07/08 08:07:25;;;;;;;11.13;5.15;;;;;;;21.30;100.00;100237.16;4881983;29;20044;-70
2023/07/08 08:09:51;;;;;;;7.57;4.78;;;;;;;21.26;100.00;100210.84;4877387;29;20383;-70
2023/07/08 08:12:16;;;;;;;7.07;4.70;;;;;;;21.24;100.00;100231.00;4902870;29;20041;-70
2023/07/08 08:14:42;;;;;;;6.25;4.13;;;;;;;21.30;100.00;100242.78;4872552;29;20033;-70
2023/07/08 08:17:07;;;;;;;7.82;4.80;;;;;;;21.34;100.00;100257.78;4863620;29;20393;-69
2023/07/08 08:19:33;;;;;;;6.90;4.13;;;;;;;21.35;100.00;100273.56;4872659;29;20163;-70
2023/07/08 08:21:58;;;;;;;6.78;4.10;;;;;;;21.39;100.00;100285.78;4903338;29;20039;-72
2023/07/08 08:24:23;;;;;;;5.70;4.53;;;;;;;21.43;100.00;100289.50;4887213;29;20089;-70
2023/07/08 08:26:49;;;;;;;5.60;3.70;;;;;;;21.50;100.00;100281.16;4887368;29;20071;-70
2023/07/08 08:29:14;;;;;;;6.72;4.15;;;;;;;21.57;100.00;100274.84;4887687;29;20447;-70
2023/07/08 08:31:40;;;;;;;8.13;4.38;;;;;;;21.63;100.00;100291.09;4872261;29;20025;-69
2023/07/08 08:34:05;;;;;;;6.43;4.05;;;;;;;21.72;100.00;100307.81;4904529;29;20036;-69
2023/07/08 08:36:31;;;;;;;6.30;4.35;;;;;;;21.81;100.00;100302.75;4856577;29;20025;-69
2023/07/08 08:38:56;;;;;;;6.63;3.92;;;;;;;21.92;100.00;100314.22;4903113;29;20463;-69
2023/07/08 08:41:33;;;;;;;6.10;3.85;;;;;;;22.10;100.00;100306.09;4903181;29;20100;-69
2023/07/08 08:43:58;;;;;;;7.35;3.60;;;;;;;22.26;100.00;100323.78;4887196;29;20040;-69
2023/07/08 08:46:49;;;;;;;5.63;3.65;;;;;;;22.43;100.00;100330.94;4853536;29;20033;-69
2023/07/08 08:49:17;;;;;;;5.10;3.60;;;;;;;22.56;100.00;100331.53;4885019;29;20045;-69
2023/07/08 08:51:43;;;;;;;6.32;3.72;;;;;;;22.70;100.00;100339.41;4902889;29;20040;-70
2023/07/08 08:54:09;;;;;;;5.38;3.80;;;;;;;22.82;100.00;100330.72;4887511;29;20092;-69
2023/07/08 08:56:46;;;;;;;7.90;3.83;;;;;;;22.93;100.00;100333.72;4871119;29;20043;-69
2023/07/08 08:59:41;;;;;;;5.13;3.67;;;;;;;23.05;100.00;100332.69;4856442;29;20037;-69
2023/07/08 09:02:33;;;;;;;5.93;3.58;;;;;;;23.17;100.00;100336.09;4902319;29;20045;-69
2023/07/08 09:05:07;;;;;;;4.88;3.28;;;;;;;23.29;100.00;100337.88;4904200;29;20392;-69
2023/07/08 09:07:38;;;;;;;5.82;3.38;;;;;;;23.44;100.00;100338.06;4871815;29;20032;-69
2023/07/08 09:10:33;;;;;;;4.15;3.20;;;;;;;23.60;100.00;100347.19;4872794;29;20494;-69
2023/07/08 09:12:59;;;;;;;6.22;3.30;;;;;;;23.74;100.00;100349.41;4866357;29;20052;-69
2023/07/08 09:15:25;;;;;;;5.65;3.45;;;;;;;23.85;100.00;100353.97;4871416;29;20036;-70
2023/07/08 09:17:53;;;;;;;4.40;3.22;;;;;;;23.98;100.00;100362.19;4909701;29;20104;-69
2023/07/08 09:20:28;;;;;;;6.13;3.10;;;;;;;24.08;100.00;100348.13;4856241;29;20033;-69
2023/07/08 09:22:55;;;;;;;4.75;3.10;;;;;;;24.18;100.00;100352.28;4887146;29;20048;-69
2023/07/08 09:25:32;;;;;;;6.57;3.25;;;;;;;24.29;100.00;100358.88;4874787;29;20096;-69
2023/07/08 09:27:58;;;;;;;5.80;3.28;;;;;;;24.39;100.00;100360.16;4872064;29;20549;-70
2023/07/08 09:30:24;;;;;;;4.70;2.85;;;;;;;24.49;100.00;100353.81;4886733;29;20032;-70
2023/07/08 09:32:50;;;;;;;5.57;2.92;;;;;;;24.60;100.00;100359.59;4869754;29;20458;-70
2023/07/08 09:35:26;;;;;;;5.55;3.08;;;;;;;24.72;100.00;100362.09;4855952;29;20134;-70
2023/07/08 09:37:52;;;;;;;5.28;2.80;;;;;;;24.85;100.00;100365.44;4886544;29;20036;-70
2023/07/08 09:40:30;;;;;;;5.47;3.00;;;;;;;24.95;100.00;100359.00;4880581;29;20037;-70
2023/07/08 09:43:04;;;;;;;3.15;2.55;;;;;;;25.03;100.00;100359.88;4902189;29;20059;-70
2023/07/08 09:45:30;;;;;;;5.18;3.10;;;;;;;25.13;100.00;100353.44;4868000;29;20044;-69
2023/07/08 09:47:56;;;;;;;6.30;3.10;;;;;;;25.22;100.00;100360.84;4901681;29;20036;-70
2023/07/08 09:50:27;;;;;;;5.80;2.90;;;;;;;25.31;100.00;100361.28;4886675;29;20028;-70
2023/07/08 09:52:54;;;;;;;5.20;2.60;;;;;;;25.45;100.00;100364.19;4859203;29;20032;-70
2023/07/08 09:55:20;;;;;;;4.03;2.80;;;;;;;25.62;100.00;100356.94;4855542;29;20092;-70
2023/07/08 09:57:47;;;;;;;3.92;2.63;;;;;;;25.81;100.00;100358.63;4870946;29;20033;-70
2023/07/08 10:00:16;;;;;;;6.40;2.53;;;;;;;26.02;100.00;100360.72;4869233;29;20049;-70
2023/07/08 10:02:55;;;;;;;5.57;2.33;;;;;;;26.26;100.00;100356.31;4837239;29;20037;-70
2023/07/08 10:05:24;;;;;;;4.97;2.60;;;;;;;26.52;100.00;100366.50;4868179;29;20458;-70
2023/07/08 10:07:54;;;;;;;4.32;2.45;;;;;;;26.77;100.00;100369.34;4885683;29;20044;-70
2023/07/08 10:10:25;;;;;;;2.63;2.00;;;;;;;27.01;100.00;100369.75;4874203;29;20032;-70
2023/07/08 10:12:59;;;;;;;3.33;2.20;;;;;;;27.27;100.00;100374.19;4870826;29;20044;-70
2023/07/08 10:15:40;;;;;;;6.57;2.25;;;;;;;27.51;100.00;100381.03;4885893;29;20036;-70
2023/07/08 10:18:13;;;;;;;4.50;2.17;;;;;;;27.85;100.00;100375.59;4901542;29;20053;-70
2023/07/08 10:20:48;;;;;;;3.55;2.20;;;;;;;28.16;100.00;100381.53;4871181;29;20438;-70
2023/07/08 10:23:45;;;;;;;2.50;1.75;;;;;;;28.54;100.00;100376.81;4886053;29;20032;-70
2023/07/08 10:26:27;;;;;;;3.17;1.60;;;;;;;28.83;100.00;100376.53;4833167;29;20095;-70
2023/07/08 10:29:02;;;;;;;4.33;1.93;;;;;;;29.13;100.00;100384.44;4871929;29;20064;-70
2023/07/08 10:31:32;;;;;;;4.35;1.88;;;;;;;29.42;100.00;100379.25;4901652;29;20039;-70
2023/07/08 10:34:10;;;;;;;4.55;1.58;;;;;;;29.72;98.71;100381.31;4885808;29;20363;-70
2023/07/08 10:36:51;;;;;;;2.67;1.50;;;;;;;30.02;98.88;100373.97;4890157;29;20033;-70
2023/07/08 10:39:22;;;;;;;2.55;1.70;;;;;;;30.28;98.60;100376.06;4870396;29;20445;-70
2023/07/08 10:41:51;;;;;;;3.60;1.90;;;;;;;30.52;88.94;100378.16;4870079;29;20073;-70
2023/07/08 10:44:31;;;;;;;2.90;1.20;;;;;;;30.71;92.84;100368.81;4882249;29;20033;-71
2023/07/08 10:47:03;;;;;;;2.45;1.30;;;;;;;30.87;88.44;100377.56;4885309;29;20104;-70
2023/07/08 10:49:54;;;;;;;3.60;1.93;;;;;;;31.04;91.27;100389.16;4885813;29;20036;-70
2023/07/08 10:52:26;;;;;;;2.63;1.33;;;;;;;31.19;88.25;100383.97;4885231;29;20028;-70
2023/07/08 10:55:13;;;;;;;2.33;1.60;;;;;;;31.30;82.53;100385.34;4901136;29;20044;-70
2023/07/08 10:57:57;;;;;;;3.78;1.80;;;;;;;31.53;84.56;100386.56;4900212;29;20302;-70
2023/07/08 11:00:43;;;;;;;2.80;1.52;;;;;;;31.71;84.70;100392.75;4901027;29;20498;-71
2023/07/08 11:03:28;;;;;;;2.75;1.40;;;;;;;31.87;80.10;100379.69;4869339;29;20135;-71
2023/07/08 11:06:17;;;;;;;3.45;1.50;;;;;;;31.92;73.76;100391.50;4869938;29;20085;-70
2023/07/08 11:08:45;;;;;;;2.67;1.50;;;;;;;31.98;77.53;100395.50;4882782;29;20132;-71
2023/07/08 11:11:40;;;;;;;3.20;1.60;;;;;;;32.10;76.60;100399.72;4860899;29;20380;-71
2023/07/08 11:14:15;;;;;;;2.42;1.33;;;;;;;32.15;78.75;100404.97;4885561;29;20439;-70
2023/07/08 11:16:47;;;;;;;3.13;1.40;;;;;;;32.19;74.43;100404.88;4861048;29;20032;-70
2023/07/08 11:19:16;;;;;;;;;;;;;;;32.16;71.92;100400.81;4855380;29;20044;-71
2023/07/08 11:21:50;;;;;;;2.85;1.52;;;;;;;32.26;74.65;100408.38;4885107;29;19963;-71